Avondale, KY

10:26 AM CDT on April 28, 2015 (GMT -0500)
Ricks Place Paducah, KY | | Change Station
CLOSE
Current Station
Personal Weather Station
Location: Paducah, KY
Elevation: 351 ft
Nearby Weather Stations
Active Advisory: Flood Warning

Elev 351 ft 37.07 °N, 88.62 °W | Updated 48 minutes ago

Clear
Clear
57.2 °F
Feels Like 57.2 °F
N
7.3
Wind Variable Wind from ESE

Today
High -- | Low -- °F
--% Chance of Precip.
Yesterday
High -- | Low -- °F
Precip. -- in
6:04 AM 7:41 PM
Waxing Gibbous, 74% visible
Pressure 30.06 in
Visibility 10.0 miles
Clouds Clear
Dew Point 44 °F
Humidity 61%
Rainfall 0.00 in
Snow Depth Not available.
UV 6 out of 12
Pollen 9.60 out of 12
Air Quality Not available.
Flu Activity Local Activity
METAR KPAH 281453Z AUTO 05013KT 10SM CLR 14/04 A3006 RMK AO2 SLP179 T01390039 50000

More Conditions Fewer Conditions

Pressure 30.06 in
Visibility 10.0 miles
Clouds Clear
Dew Point 44 °F
Humidity 61%
Rainfall 0.00 in
Snow Depth Not available.
UV 6 out of 12
Pollen 9.60 out of 12
Air Quality Not available.
Flu Activity Local Activity
METAR KPAH 281453Z AUTO 05013KT 10SM CLR 14/04 A3006 RMK AO2 SLP179 T01390039 50000

More Conditions Fewer Conditions

10-Day Weather Forecast

Almanac

Astronomy

Apr. 28, 2015 Rise Set
Actual Time
Civil Twilight
Nautical Twilight
Astronomical Twilight
Moon
Length of Visible Light
Length of Day
Tomorrow will be .
, % of the Moon is Illuminated

Today's Extremes

State Highs State Lows

Community

WunderPhotos

Upload Photos

1,817,661 photos uploaded!

WunderBlogs® & News

Nearby

Air Quality

  Air Quality AQ Index Pollutant
Not available.

Snow Depth

Station Depth Elevation

Earthquake Activity

City Distance Mag. Time & Date
Minimum magnitude displayed is 2.5.

Coastal Water Temperatures

Place Temperature

Stations

Nearby Weather Stations

Station Location Temp. Windchill Dew Point Humidity Wind Precip. Elev Updated Type
                   
Flood Warning
Statement as of 9:30 PM CDT on April 27, 2015

The Flood Warning continues for
the Ohio River at Grand Chain dam
* until Wednesday evening.
* At 7:00 PM Monday the stage was 45.4 feet.
* Flood stage is 42.0 feet.
* Minor flooding is occurring and minor flooding is forecast.
* Forecast... the river will continue to fall to below flood stage by
Wednesday afternoon.


Lat... Lon 3727 8908 3717 8916 3709 8907 3714 8888
      3727 8884




930 PM CDT Mon Apr 27 2015

The Flood Warning continues for
the Ohio River at Brookport dam
* until Wednesday evening.
* At 7:00 PM Monday the stage was 39.9 feet.
* Flood stage is 37.0 feet.
* Minor flooding is occurring and minor flooding is forecast.
* Forecast... the river will continue to fall to below flood stage by
Wednesday afternoon.


Lat... Lon 3727 8884 3714 8888 3709 8872 3715 8861